Time;durP1;ratioP1;P1;durP2;ratioP2;P2;SDS_P1;SDS_P2;PMS_P1;PMS_P2;Temp;Humidity;BMP_temperature;BMP_pressure;BME280_temperature;BME280_humidity;BME280_pressure;Samples;Min_cycle;Max_cycle;Signal;HPM_P1;HPM_P2
2022/03/31 00:00:07;;;;;;;3.88;2.33;;;3.60;99.90;;;;;;5021443;28;20144;-63
2022/03/31 00:02:33;;;;;;;7.43;2.60;;;3.60;99.90;;;;;;5030557;28;20052;-63
2022/03/31 00:04:59;;;;;;;4.38;2.30;;;3.60;99.90;;;;;;5021635;28;20030;-63
2022/03/31 00:07:25;;;;;;;3.90;2.30;;;3.60;99.90;;;;;;5027754;28;20045;-63
2022/03/31 00:09:50;;;;;;;4.45;2.20;;;3.60;99.90;;;;;;5030014;28;20091;-63
2022/03/31 00:12:16;;;;;;;5.38;2.40;;;3.70;99.90;;;;;;5023588;28;20034;-63
2022/03/31 00:14:42;;;;;;;5.60;2.58;;;3.70;99.90;;;;;;5028229;28;20078;-63
2022/03/31 00:17:07;;;;;;;3.83;1.90;;;3.70;99.90;;;;;;5030107;28;20042;-63
2022/03/31 00:19:33;;;;;;;8.20;2.40;;;3.70;99.90;;;;;;5030364;28;20048;-63
2022/03/31 00:32:29;;;;;;;3.67;2.22;;;3.60;99.90;;;;;;5022666;28;20073;-63
2022/03/31 00:34:55;;;;;;;4.18;2.35;;;3.50;99.90;;;;;;5029257;28;20665;-63
2022/03/31 00:37:44;;;;;;;5.35;1.88;;;3.40;99.90;;;;;;5023284;28;20120;-63
2022/03/31 00:40:15;;;;;;;3.78;1.85;;;3.30;99.90;;;;;;5022372;28;20065;-63
2022/03/31 00:42:43;;;;;;;1.90;1.30;;;3.20;99.90;;;;;;5029227;28;20037;-63
2022/03/31 00:45:23;;;;;;;5.55;2.15;;;3.10;99.90;;;;;;5029272;28;20037;-63
2022/03/31 00:47:50;;;;;;;6.50;2.20;;;3.10;99.90;;;;;;5027141;28;20111;-63
2022/03/31 00:50:16;;;;;;;6.95;2.13;;;3.00;99.90;;;;;;5029159;28;20037;-63
2022/03/31 00:52:42;;;;;;;4.75;2.20;;;3.00;99.90;;;;;;5028854;28;20138;-63
2022/03/31 00:55:10;;;;;;;4.82;2.22;;;2.90;99.90;;;;;;5018804;28;20497;-63
2022/03/31 00:57:36;;;;;;;6.35;2.17;;;2.90;99.90;;;;;;5029775;28;20045;-63
2022/03/31 01:00:07;;;;;;;6.07;2.25;;;2.90;99.90;;;;;;5029951;28;20153;-63
2022/03/31 01:02:35;;;;;;;7.50;2.20;;;2.80;99.90;;;;;;5022367;28;20050;-63
2022/03/31 01:05:02;;;;;;;4.32;2.17;;;2.80;99.90;;;;;;5028802;28;20033;-63
2022/03/31 01:07:28;;;;;;;5.13;2.15;;;2.80;99.90;;;;;;5029341;28;20041;-62
2022/03/31 01:09:56;;;;;;;6.40;2.42;;;2.80;99.90;;;;;;5027202;28;20088;-63
2022/03/31 01:12:22;;;;;;;4.95;2.35;;;2.80;99.90;;;;;;5016788;28;20531;-63
2022/03/31 01:15:06;;;;;;;5.88;2.10;;;2.80;99.90;;;;;;5028153;28;20033;-63
2022/03/31 01:17:36;;;;;;;5.25;2.30;;;2.80;99.90;;;;;;5029623;28;20056;-63
2022/03/31 01:20:05;;;;;;;5.43;2.60;;;2.70;99.90;;;;;;5015516;28;20555;-63
2022/03/31 01:22:31;;;;;;;5.78;2.20;;;2.70;99.90;;;;;;5028118;28;20045;-63
2022/03/31 01:25:03;;;;;;;4.55;2.40;;;2.80;99.90;;;;;;5028921;28;20037;-63
2022/03/31 01:27:29;;;;;;;8.95;2.88;;;2.80;99.90;;;;;;5018565;28;20064;-63
2022/03/31 01:29:55;;;;;;;5.85;2.30;;;2.80;99.90;;;;;;5027612;28;20041;-63
2022/03/31 01:32:22;;;;;;;5.30;2.17;;;2.80;99.90;;;;;;5028716;28;20688;-62
2022/03/31 01:34:48;;;;;;;4.97;2.50;;;2.80;99.90;;;;;;5028689;28;20041;-63
2022/03/31 01:37:13;;;;;;;6.15;2.30;;;2.80;99.90;;;;;;5024626;28;20045;-63
2022/03/31 01:39:40;;;;;;;4.90;2.13;;;2.80;99.90;;;;;;5027987;28;20052;-63
2022/03/31 01:42:06;;;;;;;5.32;2.45;;;2.90;99.90;;;;;;5028749;28;20049;-63
2022/03/31 01:44:32;;;;;;;6.38;2.72;;;2.90;99.90;;;;;;5020976;28;20642;-63
2022/03/31 01:46:58;;;;;;;4.78;2.80;;;2.90;99.90;;;;;;5027648;28;20065;-63
2022/03/31 01:49:24;;;;;;;7.60;3.00;;;2.90;99.90;;;;;;5028557;28;20084;-63
2022/03/31 01:51:49;;;;;;;6.78;3.15;;;2.90;99.90;;;;;;5028720;28;20045;-63
2022/03/31 01:54:15;;;;;;;6.32;3.38;;;2.90;99.90;;;;;;5021380;28;20045;-63
2022/03/31 01:56:42;;;;;;;9.40;3.58;;;2.90;99.90;;;;;;5032964;28;20041;-63
2022/03/31 01:59:08;;;;;;;9.23;4.10;;;2.90;99.90;;;;;;5028002;28;20042;-63
2022/03/31 02:01:33;;;;;;;7.47;3.33;;;2.90;99.90;;;;;;5021993;28;20041;-63
2022/03/31 02:03:59;;;;;;;7.80;3.95;;;2.90;99.90;;;;;;5026019;28;20048;-63
2022/03/31 02:06:25;;;;;;;11.40;4.30;;;2.80;99.90;;;;;;5028152;28;20034;-63
2022/03/31 02:08:50;;;;;;;6.55;4.22;;;2.80;99.90;;;;;;5017119;28;20489;-63
2022/03/31 02:11:16;;;;;;;7.25;4.22;;;2.80;99.90;;;;;;5027445;28;20029;-63
2022/03/31 02:13:43;;;;;;;7.68;4.35;;;2.70;99.90;;;;;;5027857;28;20071;-63
2022/03/31 02:16:08;;;;;;;8.13;4.50;;;2.70;99.90;;;;;;5028270;28;20049;-63
2022/03/31 02:18:34;;;;;;;6.68;3.33;;;2.70;99.90;;;;;;5014511;28;20045;-63
2022/03/31 02:21:00;;;;;;;9.68;4.40;;;2.70;99.90;;;;;;5027181;28;20033;-63
2022/03/31 02:23:25;;;;;;;7.72;3.50;;;2.70;99.90;;;;;;5026610;28;20037;-63
2022/03/31 02:25:51;;;;;;;10.30;4.60;;;2.70;99.90;;;;;;5021951;28;20450;-63
2022/03/31 02:28:17;;;;;;;10.27;3.95;;;2.70;99.90;;;;;;5027534;28;20041;-63
2022/03/31 02:30:42;;;;;;;7.88;4.18;;;2.70;99.90;;;;;;5027644;28;20103;-63
2022/03/31 02:33:08;;;;;;;5.90;3.80;;;2.70;99.90;;;;;;5020940;28;20104;-63
2022/03/31 02:35:34;;;;;;;11.45;3.80;;;2.70;99.90;;;;;;5017746;28;20049;-63
2022/03/31 02:38:00;;;;;;;6.18;3.65;;;2.70;99.90;;;;;;5027375;28;20698;-63
2022/03/31 02:40:25;;;;;;;9.23;4.35;;;2.70;99.90;;;;;;5027733;28;20053;-63
2022/03/31 02:42:51;;;;;;;9.10;3.60;;;2.70;99.90;;;;;;5020262;28;20030;-63
2022/03/31 02:45:19;;;;;;;4.25;2.78;;;2.70;99.90;;;;;;5019594;28;20052;-63
2022/03/31 02:47:45;;;;;;;6.13;3.72;;;2.70;99.90;;;;;;5027415;28;20499;-63
2022/03/31 02:50:11;;;;;;;8.05;4.38;;;2.70;99.90;;;;;;5024616;28;20044;-63
2022/03/31 02:55:24;;;;;;;6.65;3.67;;;2.70;99.90;;;;;;5031276;28;20041;-63
2022/03/31 02:57:51;;;;;;;7.38;4.25;;;2.70;99.90;;;;;;5039229;28;20052;-63
2022/03/31 03:00:17;;;;;;;6.47;3.47;;;2.70;99.90;;;;;;5024126;28;20053;-63
2022/03/31 03:02:43;;;;;;;5.50;3.55;;;2.70;99.90;;;;;;5026228;28;20052;-63
2022/03/31 03:05:08;;;;;;;6.50;3.85;;;2.70;99.90;;;;;;5023602;28;20049;-63
2022/03/31 03:07:34;;;;;;;7.55;4.40;;;2.70;99.90;;;;;;5017463;28;20608;-62
2022/03/31 03:09:59;;;;;;;9.65;5.20;;;2.70;99.90;;;;;;5018353;28;20041;-63
2022/03/31 03:12:25;;;;;;;8.10;4.15;;;2.70;99.90;;;;;;5026901;28;20041;-62
2022/03/31 03:14:51;;;;;;;8.75;5.25;;;2.70;99.90;;;;;;5027418;28;20185;-62
2022/03/31 03:17:17;;;;;;;5.97;3.17;;;2.80;99.90;;;;;;5019958;28;20041;-63
2022/03/31 03:19:43;;;;;;;8.90;4.53;;;2.80;99.90;;;;;;5019809;28;20045;-63
2022/03/31 03:22:09;;;;;;;7.13;4.15;;;2.80;99.90;;;;;;5026705;28;20052;-63
2022/03/31 03:24:35;;;;;;;10.90;5.80;;;2.80;99.90;;;;;;5015244;28;20041;-63
2022/03/31 03:27:01;;;;;;;8.65;5.22;;;2.80;99.90;;;;;;5018694;28;20525;-63
2022/03/31 03:29:27;;;;;;;9.02;5.15;;;2.80;99.90;;;;;;5027170;28;20057;-63
2022/03/31 03:31:53;;;;;;;9.27;5.38;;;2.80;99.90;;;;;;5027146;28;20072;-63
2022/03/31 03:34:19;;;;;;;12.30;5.93;;;2.80;99.90;;;;;;5022570;28;20041;-63
2022/03/31 03:36:45;;;;;;;6.70;4.22;;;2.90;99.90;;;;;;5030985;28;20081;-62
2022/03/31 03:39:14;;;;;;;11.38;6.82;;;2.90;99.90;;;;;;5026368;28;20089;-63
2022/03/31 03:41:40;;;;;;;10.52;6.40;;;2.90;99.90;;;;;;5024494;28;20045;-63
2022/03/31 03:44:06;;;;;;;11.38;7.43;;;2.90;99.90;;;;;;5027075;28;20779;-63
2022/03/31 03:46:31;;;;;;;11.82;7.05;;;2.90;99.90;;;;;;5030463;28;20116;-63
2022/03/31 03:48:57;;;;;;;10.40;6.75;;;2.90;99.90;;;;;;5022771;28;20563;-63
2022/03/31 03:51:24;;;;;;;9.07;5.20;;;2.90;99.90;;;;;;5023573;28;20045;-63
2022/03/31 03:53:50;;;;;;;14.82;7.78;;;3.00;99.90;;;;;;5030261;28;20408;-63
2022/03/31 03:56:20;;;;;;;13.55;7.85;;;3.00;99.90;;;;;;5042232;28;20041;-63
2022/03/31 03:58:45;;;;;;;12.65;8.25;;;3.00;99.90;;;;;;5015765;28;20082;-63
2022/03/31 04:01:11;;;;;;;13.73;8.57;;;3.00;99.90;;;;;;5030373;28;20069;-63
2022/03/31 04:03:37;;;;;;;12.20;8.02;;;3.00;99.90;;;;;;5030022;28;20059;-63
2022/03/31 04:06:02;;;;;;;12.00;7.72;;;3.00;99.90;;;;;;5025734;28;20042;-63
2022/03/31 04:08:28;;;;;;;11.85;7.95;;;3.00;99.90;;;;;;5027883;28;20042;-63
2022/03/31 04:10:54;;;;;;;11.70;7.90;;;3.00;99.90;;;;;;5029672;28;20033;-63
2022/03/31 04:13:20;;;;;;;13.00;8.02;;;3.10;99.90;;;;;;5027855;28;20107;-63
2022/03/31 04:15:46;;;;;;;13.05;8.40;;;3.10;99.90;;;;;;5023076;28;20041;-63
2022/03/31 04:18:12;;;;;;;13.93;8.20;;;3.00;99.90;;;;;;5029641;28;20041;-63
2022/03/31 04:20:37;;;;;;;11.02;7.05;;;3.10;99.90;;;;;;5030552;28;20040;-63
2022/03/31 04:23:03;;;;;;;8.77;5.88;;;3.10;99.90;;;;;;5025870;28;20115;-63
2022/03/31 04:25:29;;;;;;;14.32;8.52;;;3.10;99.90;;;;;;5025584;28;20091;-63
2022/03/31 04:27:55;;;;;;;13.68;8.98;;;3.10;99.90;;;;;;5029829;28;20077;-63
2022/03/31 04:30:21;;;;;;;15.73;8.68;;;3.10;99.90;;;;;;5020955;28;20757;-63
2022/03/31 04:32:48;;;;;;;14.00;8.50;;;3.10;99.90;;;;;;5022911;28;20117;-63
2022/03/31 04:35:15;;;;;;;15.55;8.73;;;3.10;99.90;;;;;;5029731;28;20509;-63
2022/03/31 04:37:41;;;;;;;13.95;9.02;;;3.10;99.90;;;;;;5028917;28;20049;-63
2022/03/31 04:40:08;;;;;;;14.50;9.07;;;3.10;99.90;;;;;;5026028;28;20041;-63
2022/03/31 04:42:35;;;;;;;15.05;9.43;;;3.10;99.90;;;;;;5028991;28;20049;-63
2022/03/31 04:45:02;;;;;;;13.85;8.95;;;3.10;99.90;;;;;;5029343;28;20764;-63
2022/03/31 04:47:28;;;;;;;14.40;8.88;;;3.10;99.90;;;;;;5009570;28;20052;-63
2022/03/31 04:49:54;;;;;;;14.02;9.48;;;3.10;99.90;;;;;;5013179;28;20397;-63
2022/03/31 04:52:20;;;;;;;16.67;9.63;;;3.10;99.90;;;;;;5029420;28;20550;-63
2022/03/31 04:54:46;;;;;;;15.70;10.25;;;3.20;99.90;;;;;;5025138;28;20037;-63
2022/03/31 04:57:16;;;;;;;15.95;9.55;;;3.20;99.90;;;;;;5027834;28;20099;-63
2022/03/31 04:59:43;;;;;;;16.25;9.73;;;3.20;99.90;;;;;;5025147;28;20038;-63
2022/03/31 05:02:10;;;;;;;16.92;9.98;;;3.10;99.90;;;;;;5023885;28;20061;-63
2022/03/31 05:04:35;;;;;;;16.63;9.65;;;3.10;99.90;;;;;;5019012;28;20052;-63
2022/03/31 05:07:01;;;;;;;15.00;10.15;;;3.20;99.90;;;;;;5021043;28;20037;-63
2022/03/31 05:09:27;;;;;;;15.45;9.85;;;3.10;99.90;;;;;;5028793;28;20036;-63
2022/03/31 05:11:52;;;;;;;14.25;8.80;;;3.20;99.90;;;;;;5026525;28;20563;-63
2022/03/31 05:14:18;;;;;;;16.23;9.82;;;3.20;99.90;;;;;;5022446;28;20068;-63
2022/03/31 05:16:44;;;;;;;14.05;9.93;;;3.10;99.90;;;;;;5021991;28;20052;-63
2022/03/31 05:19:11;;;;;;;15.85;10.45;;;3.20;99.90;;;;;;5020996;28;20060;-63
2022/03/31 05:21:36;;;;;;;13.32;7.97;;;3.10;99.90;;;;;;5020135;28;20243;-63
2022/03/31 05:24:02;;;;;;;13.57;9.57;;;3.10;99.90;;;;;;5020815;28;20543;-63
2022/03/31 05:26:28;;;;;;;14.63;9.98;;;3.10;99.90;;;;;;5027406;28;20033;-63
2022/03/31 05:28:54;;;;;;;10.82;6.22;;;3.10;99.90;;;;;;5045704;23;20572;-63
2022/03/31 05:31:19;;;;;;;14.05;9.60;;;3.10;99.90;;;;;;5043989;28;20565;-63
2022/03/31 05:33:45;;;;;;;15.52;10.00;;;3.10;99.90;;;;;;5034027;28;20037;-63
2022/03/31 05:36:11;;;;;;;12.98;8.50;;;3.10;99.90;;;;;;5047532;28;20101;-63
2022/03/31 05:38:36;;;;;;;16.25;10.27;;;3.10;99.90;;;;;;5033583;28;20037;-63
2022/03/31 05:41:02;;;;;;;13.73;9.30;;;3.10;99.90;;;;;;5044145;28;20094;-63
2022/03/31 05:43:28;;;;;;;13.23;8.75;;;3.10;99.90;;;;;;5051156;28;20544;-63
2022/03/31 05:45:54;;;;;;;18.35;9.63;;;3.10;99.90;;;;;;5048520;28;20491;-63
2022/03/31 05:48:19;;;;;;;15.13;9.45;;;3.10;99.90;;;;;;5056410;28;20037;-63
2022/03/31 05:50:45;;;;;;;15.95;10.20;;;3.10;99.90;;;;;;5053389;28;20037;-63
2022/03/31 05:53:10;;;;;;;15.13;9.40;;;3.10;99.90;;;;;;5046191;28;20116;-63
2022/03/31 05:55:36;;;;;;;14.77;9.82;;;3.10;99.90;;;;;;5032866;28;20403;-63
2022/03/31 05:58:02;;;;;;;14.52;9.52;;;3.10;99.90;;;;;;5050750;28;20040;-63
2022/03/31 06:00:28;;;;;;;14.98;9.75;;;3.20;99.90;;;;;;5051484;28;20044;-63
2022/03/31 06:02:55;;;;;;;14.43;9.73;;;3.10;99.90;;;;;;5046802;28;20036;-63
2022/03/31 06:05:21;;;;;;;13.82;9.15;;;3.10;99.90;;;;;;5052332;28;20059;-63
2022/03/31 06:07:47;;;;;;;15.40;9.32;;;3.10;99.90;;;;;;5052948;28;20510;-63
2022/03/31 06:10:13;;;;;;;14.82;9.68;;;3.20;99.90;;;;;;5046677;28;20086;-63
2022/03/31 06:12:39;;;;;;;15.38;9.65;;;3.10;99.90;;;;;;5052597;28;20041;-63
2022/03/31 06:15:06;;;;;;;15.32;9.95;;;3.20;99.90;;;;;;5050587;28;20043;-63
2022/03/31 06:17:32;;;;;;;13.70;9.45;;;3.20;99.90;;;;;;5049856;28;20037;-63
2022/03/31 06:19:58;;;;;;;14.32;9.50;;;3.20;99.90;;;;;;5041118;28;20558;-63
2022/03/31 06:22:23;;;;;;;14.63;9.85;;;3.20;99.90;;;;;;5047359;28;20125;-63
2022/03/31 06:24:49;;;;;;;14.55;9.82;;;3.20;99.90;;;;;;5050742;28;20124;-63
2022/03/31 06:27:15;;;;;;;14.68;9.80;;;3.20;99.90;;;;;;5046164;28;20044;-63
2022/03/31 06:29:45;;;;;;;14.90;9.70;;;3.20;99.90;;;;;;5046520;28;20152;-63
2022/03/31 06:32:12;;;;;;;16.88;10.25;;;3.20;99.90;;;;;;5037398;28;20055;-63
2022/03/31 06:34:38;;;;;;;15.60;10.73;;;3.20;99.90;;;;;;5049069;28;20094;-63
2022/03/31 06:37:04;;;;;;;16.75;11.13;;;3.20;99.90;;;;;;5049779;28;20056;-63
2022/03/31 06:39:29;;;;;;;15.35;10.52;;;3.20;99.90;;;;;;5045149;28;20044;-63
2022/03/31 06:41:55;;;;;;;14.23;9.30;;;3.20;99.90;;;;;;5046668;28;20043;-63
2022/03/31 06:44:21;;;;;;;16.05;10.68;;;3.20;99.90;;;;;;5046701;28;20049;-63
2022/03/31 06:46:47;;;;;;;16.02;10.45;;;3.20;99.90;;;;;;5046826;28;20094;-63
2022/03/31 06:49:13;;;;;;;15.48;10.00;;;3.20;99.90;;;;;;5050597;28;20036;-63
2022/03/31 06:51:39;;;;;;;16.38;10.88;;;3.20;99.90;;;;;;5050612;28;20037;-63
2022/03/31 06:54:05;;;;;;;17.52;11.85;;;3.20;99.90;;;;;;5041050;28;20509;-63
2022/03/31 06:56:31;;;;;;;15.80;10.63;;;3.20;99.90;;;;;;5033588;28;20488;-63
2022/03/31 06:58:58;;;;;;;17.63;11.13;;;3.20;99.90;;;;;;5049985;28;20576;-63
2022/03/31 07:01:24;;;;;;;16.27;10.82;;;3.30;99.90;;;;;;5039619;28;20407;-63
2022/03/31 07:03:50;;;;;;;15.85;10.95;;;3.30;99.90;;;;;;5043723;28;20041;-63
2022/03/31 07:06:16;;;;;;;17.50;11.18;;;3.30;99.90;;;;;;5050223;28;20044;-63
2022/03/31 07:08:41;;;;;;;18.40;11.77;;;3.40;99.90;;;;;;5048481;28;20454;-62
2022/03/31 07:11:08;;;;;;;18.00;11.32;;;3.40;99.90;;;;;;5048892;28;20036;-63
2022/03/31 07:13:34;;;;;;;19.25;12.38;;;3.50;99.90;;;;;;5056333;28;20041;-63
2022/03/31 07:16:00;;;;;;;17.85;11.60;;;3.50;99.90;;;;;;5040567;28;20512;-63
2022/03/31 07:18:26;;;;;;;18.00;12.15;;;3.60;99.90;;;;;;5037972;28;20067;-62
2022/03/31 07:20:52;;;;;;;18.75;11.90;;;3.60;99.90;;;;;;5047184;28;20386;-62
2022/03/31 07:23:23;;;;;;;18.58;12.13;;;3.60;99.90;;;;;;5055863;28;20048;-63
2022/03/31 07:25:50;;;;;;;19.20;12.38;;;3.50;99.90;;;;;;5056351;28;20557;-63
2022/03/31 07:28:16;;;;;;;18.77;12.23;;;3.60;99.90;;;;;;5045793;28;20087;-63
2022/03/31 07:30:42;;;;;;;19.73;11.98;;;3.60;99.90;;;;;;5055580;28;20037;-63
2022/03/31 07:33:09;;;;;;;18.92;12.52;;;3.60;99.90;;;;;;5049323;28;20410;-63
2022/03/31 07:35:39;;;;;;;20.40;13.27;;;3.60;99.90;;;;;;5053788;28;20044;-63
2022/03/31 07:38:09;;;;;;;20.60;13.60;;;3.60;99.90;;;;;;5048680;28;20622;-63
2022/03/31 07:40:37;;;;;;;20.48;13.05;;;3.50;99.90;;;;;;5056731;28;20052;-63
2022/03/31 07:43:06;;;;;;;19.77;12.35;;;3.60;99.90;;;;;;5053041;28;20379;-62
2022/03/31 07:45:34;;;;;;;21.67;13.35;;;3.50;99.90;;;;;;5051589;28;20041;-63
2022/03/31 07:48:01;;;;;;;20.25;13.93;;;3.50;99.90;;;;;;5056358;28;20108;-63
2022/03/31 07:50:27;;;;;;;22.00;13.60;;;3.50;99.90;;;;;;5051618;28;20561;-63
2022/03/31 07:52:52;;;;;;;22.25;13.80;;;3.60;99.90;;;;;;5045680;28;20038;-63
2022/03/31 07:55:19;;;;;;;22.73;14.80;;;3.60;99.90;;;;;;5056442;28;20550;-62
2022/03/31 07:57:45;;;;;;;22.40;13.73;;;3.50;99.90;;;;;;5056539;28;20521;-63
2022/03/31 08:00:13;;;;;;;25.83;15.57;;;3.60;99.90;;;;;;5050786;28;20049;-63
2022/03/31 08:02:43;;;;;;;20.80;13.15;;;3.60;99.90;;;;;;5046045;28;20131;-63
2022/03/31 08:05:11;;;;;;;21.52;14.23;;;3.70;99.90;;;;;;5067863;28;20032;-63
2022/03/31 08:07:37;;;;;;;22.58;14.80;;;3.70;99.90;;;;;;5049486;28;20214;-63
2022/03/31 08:10:04;;;;;;;21.73;14.23;;;3.70;99.90;;;;;;5048287;28;20028;-63
2022/03/31 08:12:30;;;;;;;22.67;14.27;;;3.70;99.90;;;;;;5055990;28;20053;-62
2022/03/31 08:14:55;;;;;;;21.20;13.60;;;3.70;99.90;;;;;;5056343;28;20041;-63
2022/03/31 08:17:21;;;;;;;25.33;14.73;;;3.80;99.90;;;;;;5049041;28;20076;-62
2022/03/31 08:19:47;;;;;;;24.00;15.57;;;3.70;99.90;;;;;;5055382;28;20045;-62
2022/03/31 08:22:13;;;;;;;22.15;14.27;;;3.80;99.90;;;;;;5051758;28;20080;-63
2022/03/31 08:24:38;;;;;;;22.55;14.98;;;3.80;99.90;;;;;;5048616;28;20510;-63
2022/03/31 08:27:05;;;;;;;24.45;15.00;;;3.80;99.90;;;;;;5049250;28;20114;-63
2022/03/31 08:29:31;;;;;;;24.10;16.35;;;3.80;99.90;;;;;;5052095;28;20429;-62
2022/03/31 08:31:57;;;;;;;23.45;13.98;;;3.80;99.90;;;;;;5045209;28;20051;-63
2022/03/31 08:34:23;;;;;;;23.67;15.07;;;3.70;99.90;;;;;;5044332;28;20048;-62
2022/03/31 08:36:48;;;;;;;28.13;17.20;;;3.70;99.90;;;;;;5052965;28;20041;-62
2022/03/31 08:39:15;;;;;;;24.83;15.30;;;3.70;99.90;;;;;;5049406;28;20041;-62
2022/03/31 08:41:43;;;;;;;22.67;13.70;;;3.80;99.90;;;;;;5049619;28;20052;-62
2022/03/31 08:44:10;;;;;;;23.75;15.18;;;3.80;99.90;;;;;;5052254;28;20044;-62
2022/03/31 08:46:36;;;;;;;26.08;14.80;;;3.80;99.90;;;;;;5035001;28;20046;-62
2022/03/31 08:49:02;;;;;;;25.05;16.58;;;3.80;99.90;;;;;;5031150;28;20048;-62
2022/03/31 08:51:28;;;;;;;27.42;16.25;;;3.80;99.90;;;;;;5050329;28;20506;-62
2022/03/31 08:53:53;;;;;;;27.45;15.43;;;3.90;99.90;;;;;;5050969;28;20045;-63
2022/03/31 08:56:19;;;;;;;23.40;15.30;;;3.90;99.90;;;;;;5051634;28;20043;-62
2022/03/31 08:58:46;;;;;;;30.15;16.23;;;3.90;99.90;;;;;;5046434;28;20030;-62
2022/03/31 09:01:13;;;;;;;26.88;16.10;;;3.90;99.90;;;;;;5052366;28;20068;-62
2022/03/31 09:03:39;;;;;;;25.30;16.13;;;4.00;99.90;;;;;;5047399;28;20411;-63
2022/03/31 09:06:07;;;;;;;27.58;15.77;;;4.00;99.90;;;;;;5048746;28;20029;-63
2022/03/31 09:08:34;;;;;;;27.83;15.73;;;4.00;99.90;;;;;;5034949;28;20488;-63
2022/03/31 09:11:03;;;;;;;25.60;16.08;;;4.10;99.90;;;;;;5047694;28;20033;-63
2022/03/31 09:13:38;;;;;;;20.92;13.57;;;4.10;99.90;;;;;;5048681;28;20045;-63
2022/03/31 09:16:12;;;;;;;24.33;15.35;;;4.10;99.90;;;;;;5045362;28;20439;-63
2022/03/31 09:18:40;;;;;;;22.92;14.73;;;4.10;99.90;;;;;;5032988;28;20049;-63
2022/03/31 09:21:08;;;;;;;23.48;14.20;;;4.10;99.90;;;;;;5032306;28;20034;-63
2022/03/31 09:23:43;;;;;;;24.85;15.80;;;4.10;99.90;;;;;;5029482;28;20076;-63
2022/03/31 09:26:16;;;;;;;22.67;13.57;;;4.20;99.90;;;;;;5045241;28;20048;-63
2022/03/31 09:28:46;;;;;;;17.15;10.30;;;4.10;99.90;;;;;;5032714;28;20048;-62
2022/03/31 09:31:13;;;;;;;16.95;10.68;;;4.10;99.90;;;;;;5035397;28;20033;-63
2022/03/31 09:33:48;;;;;;;13.05;9.20;;;4.10;99.90;;;;;;5050478;28;20086;-63
2022/03/31 09:36:15;;;;;;;12.15;8.35;;;4.10;99.90;;;;;;5051708;28;20044;-63
2022/03/31 09:38:50;;;;;;;12.82;8.90;;;4.00;99.90;;;;;;5045660;28;20060;-63
2022/03/31 09:41:18;;;;;;;10.98;7.82;;;4.00;99.90;;;;;;5040077;28;20049;-63
2022/03/31 09:43:44;;;;;;;10.07;7.10;;;3.90;99.90;;;;;;5032079;28;20555;-63
2022/03/31 09:46:38;;;;;;;11.77;7.65;;;3.90;99.90;;;;;;5031206;28;20038;-63
2022/03/31 09:49:17;;;;;;;10.48;7.35;;;3.80;99.90;;;;;;5047378;28;20053;-63
2022/03/31 09:51:45;;;;;;;10.38;7.22;;;3.80;99.90;;;;;;5050869;28;20037;-63
2022/03/31 09:54:11;;;;;;;10.13;6.82;;;3.80;99.90;;;;;;5051235;28;20634;-63
2022/03/31 09:56:40;;;;;;;9.70;6.80;;;3.80;99.90;;;;;;5045949;28;20040;-63
2022/03/31 09:59:11;;;;;;;11.85;7.05;;;3.80;99.90;;;;;;5050543;28;20029;-63
2022/03/31 10:01:39;;;;;;;10.75;7.15;;;3.70;99.90;;;;;;5051193;28;20117;-63
2022/03/31 10:04:06;;;;;;;9.20;6.07;;;3.70;99.90;;;;;;5044300;28;20406;-63
2022/03/31 10:06:36;;;;;;;8.10;5.68;;;3.60;99.90;;;;;;5046742;28;20399;-63
2022/03/31 10:09:04;;;;;;;7.65;5.35;;;3.40;99.90;;;;;;5037738;28;20041;-63
2022/03/31 10:11:32;;;;;;;8.00;5.60;;;3.30;99.90;;;;;;5030058;28;20463;-63
2022/03/31 10:14:36;;;;;;;7.93;5.40;;;3.20;99.90;;;;;;5032556;28;20108;-63
2022/03/31 10:17:06;;;;;;;7.78;5.32;;;3.20;99.90;;;;;;5042298;28;20425;-63
2022/03/31 10:19:31;;;;;;;7.30;4.85;;;3.20;99.90;;;;;;5050804;28;20688;-63
2022/03/31 10:22:08;;;;;;;6.82;4.70;;;3.20;99.90;;;;;;5038596;28;20044;-63
2022/03/31 10:24:44;;;;;;;8.88;4.95;;;3.20;99.90;;;;;;5046823;28;20032;-63
2022/03/31 10:27:24;;;;;;;6.50;4.70;;;3.20;99.90;;;;;;5031055;28;20041;-63
2022/03/31 10:29:49;;;;;;;7.03;4.68;;;3.20;99.90;;;;;;5034569;28;20053;-63
2022/03/31 10:32:21;;;;;;;6.90;5.03;;;3.20;99.90;;;;;;5056038;28;20036;-63
2022/03/31 10:34:48;;;;;;;6.95;4.93;;;3.20;99.90;;;;;;5052423;28;20041;-63
2022/03/31 10:37:17;;;;;;;7.07;4.38;;;3.30;99.90;;;;;;5047177;28;20033;-63
2022/03/31 10:39:56;;;;;;;7.00;4.78;;;3.30;99.90;;;;;;5046208;28;20076;-63
2022/03/31 10:42:22;;;;;;;6.82;4.70;;;3.50;99.90;;;;;;5050592;28;20084;-63
2022/03/31 10:44:48;;;;;;;7.57;4.70;;;3.50;99.90;;;;;;5049994;28;20136;-63
2022/03/31 10:47:14;;;;;;;6.22;4.50;;;3.40;99.90;;;;;;5034470;28;20454;-63
2022/03/31 10:49:50;;;;;;;6.25;4.38;;;3.30;99.90;;;;;;5055687;28;20045;-63
2022/03/31 10:52:19;;;;;;;7.10;4.82;;;3.20;99.90;;;;;;5051025;28;20037;-63
2022/03/31 10:54:46;;;;;;;6.55;4.57;;;3.10;99.90;;;;;;5043028;28;20112;-62
2022/03/31 10:57:14;;;;;;;6.38;4.65;;;3.10;99.90;;;;;;5064364;28;20479;-63
2022/03/31 10:59:43;;;;;;;6.93;4.68;;;3.00;99.90;;;;;;5053336;28;20152;-63
2022/03/31 11:02:21;;;;;;;6.53;4.57;;;3.00;99.90;;;;;;5048308;28;20040;-63
2022/03/31 11:04:55;;;;;;;7.13;4.82;;;3.00;99.90;;;;;;5047813;28;20084;-62
2022/03/31 11:07:24;;;;;;;5.38;3.88;;;2.90;99.90;;;;;;5050539;28;20045;-63
2022/03/31 11:10:09;;;;;;;5.07;3.20;;;2.90;99.90;;;;;;5050485;28;20052;-63
2022/03/31 11:12:36;;;;;;;5.03;4.00;;;2.90;99.90;;;;;;5041427;28;20049;-63
2022/03/31 11:15:08;;;;;;;3.72;2.80;;;2.80;99.90;;;;;;5037207;28;20135;-63
2022/03/31 11:17:35;;;;;;;6.65;4.50;;;2.80;99.90;;;;;;5050089;28;20047;-63
2022/03/31 11:20:14;;;;;;;7.75;4.22;;;2.80;99.90;;;;;;5050577;28;20049;-63
2022/03/31 11:22:47;;;;;;;5.20;3.88;;;2.80;99.90;;;;;;5046332;28;20160;-63
2022/03/31 11:25:13;;;;;;;6.22;4.30;;;2.90;99.90;;;;;;5055589;28;20043;-63
2022/03/31 11:27:40;;;;;;;6.53;4.68;;;2.90;99.90;;;;;;5045444;28;20037;-63
2022/03/31 11:30:12;;;;;;;5.93;4.45;;;2.90;99.90;;;;;;5042021;28;20094;-63
2022/03/31 11:32:38;;;;;;;6.30;4.43;;;3.00;99.90;;;;;;5050020;28;20116;-63
2022/03/31 11:35:13;;;;;;;6.30;4.70;;;3.00;99.90;;;;;;5050323;28;20041;-63
2022/03/31 11:37:48;;;;;;;9.27;5.32;;;3.10;99.90;;;;;;5039579;28;20087;-63
2022/03/31 11:40:19;;;;;;;8.25;5.20;;;3.20;99.90;;;;;;5043705;28;20029;-62
2022/03/31 11:42:46;;;;;;;7.75;5.70;;;3.10;99.90;;;;;;5049763;28;20076;-62
2022/03/31 11:45:33;;;;;;;8.30;5.45;;;3.20;99.90;;;;;;5044858;28;20035;-62
2022/03/31 11:48:05;;;;;;;9.10;6.22;;;3.30;99.90;;;;;;5049456;28;20033;-63
2022/03/31 11:50:32;;;;;;;8.38;6.05;;;3.40;99.90;;;;;;5050340;28;20079;-63
2022/03/31 11:52:58;;;;;;;9.25;6.28;;;3.40;99.90;;;;;;5047449;28;20083;-62
2022/03/31 11:55:24;;;;;;;9.45;6.55;;;3.40;99.90;;;;;;5038476;28;20044;-62
2022/03/31 11:57:52;;;;;;;9.98;6.70;;;3.40;99.90;;;;;;5052085;28;20048;-63
2022/03/31 12:00:18;;;;;;;10.98;7.82;;;3.50;99.90;;;;;;5049815;28;20931;-63
2022/03/31 12:03:03;;;;;;;12.40;7.38;;;3.50;99.90;;;;;;5043806;28;20041;-62
2022/03/31 12:05:29;;;;;;;11.45;7.72;;;3.50;99.90;;;;;;5053650;28;20041;-63
2022/03/31 12:07:55;;;;;;;12.52;7.72;;;3.60;99.90;;;;;;5053696;28;20040;-63
2022/03/31 12:10:22;;;;;;;10.93;7.88;;;3.60;99.90;;;;;;5047861;28;20037;-63
2022/03/31 12:12:50;;;;;;;12.18;8.20;;;3.60;99.90;;;;;;5043811;28;20056;-63
2022/03/31 12:15:24;;;;;;;12.88;7.90;;;3.60;99.90;;;;;;5052987;28;20486;-63
2022/03/31 12:18:07;;;;;;;13.68;8.82;;;3.60;99.90;;;;;;5044700;28;20052;-63
2022/03/31 12:20:36;;;;;;;15.27;9.85;;;3.60;99.90;;;;;;5049155;28;20657;-63
2022/03/31 12:23:04;;;;;;;14.25;9.95;;;3.60;99.90;;;;;;5044641;28;20041;-63
2022/03/31 12:25:32;;;;;;;16.55;10.40;;;3.50;99.90;;;;;;5041514;28;20117;-63
2022/03/31 12:28:08;;;;;;;16.80;10.52;;;3.50;99.90;;;;;;5067452;28;20107;-63
2022/03/31 12:30:54;;;;;;;18.20;11.23;;;3.60;99.90;;;;;;5053294;28;20037;-63
2022/03/31 12:33:36;;;;;;;15.10;10.45;;;3.60;99.90;;;;;;5040831;28;20117;-62
2022/03/31 12:36:04;;;;;;;17.92;11.57;;;3.60;99.90;;;;;;5044738;28;20086;-63
2022/03/31 12:38:40;;;;;;;18.88;11.95;;;3.70;99.90;;;;;;5052786;28;20088;-63
2022/03/31 12:41:14;;;;;;;19.30;11.98;;;3.70;99.90;;;;;;5053199;28;20090;-63
2022/03/31 12:43:39;;;;;;;20.90;12.90;;;3.70;99.90;;;;;;5045825;28;20545;-63
2022/03/31 12:46:12;;;;;;;22.75;13.98;;;3.80;99.90;;;;;;5052530;28;20117;-63
2022/03/31 12:48:38;;;;;;;23.10;13.38;;;3.90;99.90;;;;;;5052336;28;20560;-63
2022/03/31 12:51:03;;;;;;;24.58;14.10;;;3.90;99.90;;;;;;5047206;28;20542;-63
2022/03/31 12:53:41;;;;;;;25.85;15.27;;;3.90;99.90;;;;;;5051989;28;20051;-63
2022/03/31 12:56:09;;;;;;;26.05;14.77;;;4.00;99.90;;;;;;5037708;28;20508;-63
2022/03/31 12:58:36;;;;;;;25.05;15.20;;;4.00;99.90;;;;;;5043684;28;20119;-63
2022/03/31 13:01:02;;;;;;;30.65;16.73;;;4.00;99.90;;;;;;5031370;28;20050;-63
2022/03/31 13:03:28;;;;;;;29.48;16.95;;;4.00;99.90;;;;;;5029072;28;20052;-62